Time;durP1;ratioP1;P1;durP2;ratioP2;P2;SDS_P1;SDS_P2;PMS_P1;PMS_P2;Temp;Humidity;BMP_temperature;BMP_pressure;BME280_temperature;BME280_humidity;BME280_pressure;Samples;Min_cycle;Max_cycle;Signal;HPM_P1;HPM_P2
2023/06/30 00:01:57;;;;;;;5.55;2.60;;;16.30;99.90;;;;;;5012364;28;20490;-54
2023/06/30 00:04:23;;;;;;;5.40;2.40;;;16.20;99.90;;;;;;5013032;28;20430;-50
2023/06/30 00:06:49;;;;;;;4.88;2.40;;;16.20;99.90;;;;;;5013220;28;20402;-52
2023/06/30 00:09:21;;;;;;;5.63;2.55;;;16.10;99.90;;;;;;5013055;28;20038;-50
2023/06/30 00:11:50;;;;;;;6.40;2.65;;;16.10;99.90;;;;;;5012806;28;20108;-54
2023/06/30 00:14:16;;;;;;;6.07;3.22;;;16.10;99.90;;;;;;4995183;28;20036;-50
2023/06/30 00:16:41;;;;;;;4.75;2.72;;;16.10;99.90;;;;;;5012907;28;20030;-53
2023/06/30 00:19:08;;;;;;;4.97;2.95;;;16.00;99.90;;;;;;5012901;28;20060;-50
2023/06/30 00:21:34;;;;;;;6.20;2.53;;;16.00;99.90;;;;;;5012850;28;20022;-54
2023/06/30 00:24:04;;;;;;;5.50;2.67;;;15.90;99.90;;;;;;5012525;28;20034;-55
2023/06/30 00:26:30;;;;;;;6.30;2.10;;;15.80;99.90;;;;;;5012822;28;20030;-54
2023/06/30 00:28:57;;;;;;;6.80;2.55;;;15.80;99.90;;;;;;4979131;28;20034;-52
2023/06/30 00:31:23;;;;;;;3.88;2.28;;;15.80;99.90;;;;;;4994727;28;20061;-52
2023/06/30 00:33:48;;;;;;;6.07;2.58;;;15.80;99.90;;;;;;4994739;28;20061;-55
2023/06/30 00:36:15;;;;;;;5.72;2.25;;;15.70;99.90;;;;;;5012582;28;20457;-52
2023/06/30 00:38:41;;;;;;;8.07;2.08;;;15.70;99.90;;;;;;5012498;28;20061;-53
2023/06/30 00:41:07;;;;;;;3.72;2.53;;;15.70;99.90;;;;;;4994894;28;20482;-52
2023/06/30 00:43:32;;;;;;;7.13;2.30;;;15.70;99.90;;;;;;4994456;28;20452;-55
2023/06/30 00:45:58;;;;;;;5.97;2.08;;;15.70;99.90;;;;;;5012388;28;20306;-54
2023/06/30 00:48:25;;;;;;;4.05;2.38;;;15.60;99.90;;;;;;4994843;28;20490;-51
2023/06/30 00:50:51;;;;;;;4.60;2.42;;;15.60;99.90;;;;;;4994794;28;20038;-53
2023/06/30 00:53:18;;;;;;;5.43;2.47;;;15.60;99.90;;;;;;4994177;28;20072;-53
2023/06/30 00:55:44;;;;;;;7.20;3.25;;;15.70;99.90;;;;;;4994641;28;20026;-54
2023/06/30 00:58:10;;;;;;;5.18;2.60;;;15.60;99.90;;;;;;5012353;28;20386;-54
2023/06/30 01:00:36;;;;;;;5.65;2.97;;;15.60;99.90;;;;;;4994536;28;20040;-53
2023/06/30 01:03:14;;;;;;;8.38;3.03;;;15.60;99.90;;;;;;4994100;28;20192;-53
2023/06/30 01:05:45;;;;;;;8.88;4.22;;;15.70;99.90;;;;;;5012031;28;20029;-53
2023/06/30 01:08:23;;;;;;;9.68;3.40;;;15.70;99.90;;;;;;4994649;28;20049;-56
2023/06/30 01:10:50;;;;;;;9.05;4.40;;;15.70;99.90;;;;;;5012258;28;20033;-53
2023/06/30 01:13:17;;;;;;;6.65;3.92;;;15.70;99.90;;;;;;5010718;28;20025;-50
2023/06/30 01:15:44;;;;;;;10.05;4.93;;;15.70;99.90;;;;;;4994354;28;20034;-51
2023/06/30 01:18:12;;;;;;;8.65;4.40;;;15.70;99.90;;;;;;4994211;28;20419;-53
2023/06/30 01:20:40;;;;;;;11.02;5.07;;;15.70;99.90;;;;;;4994233;28;20038;-51
2023/06/30 01:23:19;;;;;;;13.50;5.15;;;15.70;99.90;;;;;;4993823;28;20061;-50
2023/06/30 01:25:47;;;;;;;9.90;4.05;;;15.70;99.90;;;;;;4994312;28;20046;-52
2023/06/30 01:28:13;;;;;;;11.20;3.90;;;15.70;99.90;;;;;;4994297;28;20571;-51
2023/06/30 01:30:39;;;;;;;9.73;4.13;;;15.70;99.90;;;;;;4994078;28;20033;-55
2023/06/30 01:33:05;;;;;;;11.10;4.50;;;15.70;99.90;;;;;;5011449;28;20032;-52
2023/06/30 01:35:33;;;;;;;10.77;5.35;;;15.60;99.90;;;;;;5011796;28;20040;-53
2023/06/30 01:38:01;;;;;;;10.45;5.00;;;15.60;99.90;;;;;;5011648;28;20049;-55
2023/06/30 01:40:27;;;;;;;10.23;5.13;;;15.60;99.90;;;;;;5011568;28;20514;-52
2023/06/30 01:42:55;;;;;;;13.13;5.50;;;15.60;99.90;;;;;;4993350;28;20434;-54
2023/06/30 01:45:23;;;;;;;14.68;5.97;;;15.60;99.90;;;;;;5011485;28;20402;-54
2023/06/30 01:47:49;;;;;;;9.57;5.20;;;15.60;99.90;;;;;;5011865;28;20036;-51
2023/06/30 01:50:15;;;;;;;9.88;4.68;;;15.60;99.90;;;;;;4977657;28;20050;-52
2023/06/30 01:52:41;;;;;;;8.75;4.65;;;15.60;99.90;;;;;;5011267;28;20426;-50
2023/06/30 01:55:07;;;;;;;8.63;4.32;;;15.60;99.90;;;;;;5011268;28;20018;-52
2023/06/30 01:57:33;;;;;;;10.43;3.97;;;15.60;99.90;;;;;;5011235;28;20498;-53
2023/06/30 01:59:58;;;;;;;6.78;3.53;;;15.60;99.90;;;;;;4993433;28;20531;-55
2023/06/30 02:02:24;;;;;;;9.98;3.60;;;15.50;99.90;;;;;;5010814;28;20065;-53
2023/06/30 02:04:50;;;;;;;6.97;3.63;;;15.50;99.90;;;;;;4993634;28;20025;-54
2023/06/30 02:07:15;;;;;;;5.85;3.50;;;15.50;99.90;;;;;;4993591;28;20576;-55
2023/06/30 02:09:41;;;;;;;7.03;3.95;;;15.50;99.90;;;;;;5011279;28;20042;-51
2023/06/30 02:12:06;;;;;;;7.03;3.80;;;15.40;99.90;;;;;;4993139;28;20026;-53
2023/06/30 02:14:32;;;;;;;7.25;4.05;;;15.50;99.90;;;;;;5011429;28;20034;-51
2023/06/30 02:16:58;;;;;;;6.82;3.97;;;15.40;99.90;;;;;;5010898;28;20025;-54
2023/06/30 02:19:23;;;;;;;8.35;4.35;;;15.40;99.90;;;;;;4993508;28;20041;-53
2023/06/30 02:21:50;;;;;;;6.88;3.85;;;15.40;99.90;;;;;;5011010;28;20104;-52
2023/06/30 02:24:18;;;;;;;9.50;4.28;;;15.40;99.90;;;;;;5012526;28;20026;-51
2023/06/30 02:26:47;;;;;;;8.80;4.28;;;15.40;99.90;;;;;;5015628;28;20456;-51
2023/06/30 02:29:12;;;;;;;8.88;4.63;;;15.40;99.90;;;;;;5015478;28;20453;-54
2023/06/30 02:31:38;;;;;;;9.27;4.30;;;15.40;99.90;;;;;;4998060;28;20038;-55
2023/06/30 02:34:04;;;;;;;7.63;3.88;;;15.40;99.90;;;;;;4999052;28;20036;-54
2023/06/30 02:36:31;;;;;;;12.95;4.93;;;15.40;99.90;;;;;;5016653;28;20050;-55
2023/06/30 02:38:57;;;;;;;7.93;4.20;;;15.40;99.90;;;;;;4998620;28;20065;-55
2023/06/30 02:41:23;;;;;;;9.63;3.63;;;15.40;99.90;;;;;;4999628;28;20478;-55
2023/06/30 02:43:49;;;;;;;9.85;3.80;;;15.40;99.90;;;;;;4998643;28;20116;-54
2023/06/30 02:46:15;;;;;;;8.20;4.18;;;15.40;99.90;;;;;;4997061;28;20125;-53
2023/06/30 02:48:41;;;;;;;8.60;3.28;;;15.40;99.90;;;;;;4997005;28;20513;-51
2023/06/30 02:51:06;;;;;;;9.07;3.95;;;15.40;99.90;;;;;;4980683;28;20053;-52
2023/06/30 02:53:33;;;;;;;11.20;4.00;;;15.40;99.90;;;;;;4996424;28;20026;-54
2023/06/30 02:55:58;;;;;;;5.60;3.80;;;15.40;99.90;;;;;;5014467;28;20482;-55
2023/06/30 02:58:24;;;;;;;11.32;4.38;;;15.40;99.90;;;;;;4996610;28;20041;-55
2023/06/30 03:00:51;;;;;;;6.32;3.92;;;15.40;99.90;;;;;;4996813;28;20033;-56
2023/06/30 03:03:17;;;;;;;8.60;3.63;;;15.40;99.90;;;;;;4996322;28;20087;-54
2023/06/30 03:05:43;;;;;;;5.53;3.17;;;15.40;99.90;;;;;;4996655;28;20404;-53
2023/06/30 03:08:10;;;;;;;5.93;3.10;;;15.30;99.90;;;;;;4996720;28;20037;-52
2023/06/30 03:10:36;;;;;;;9.00;3.38;;;15.30;99.90;;;;;;4996441;28;20398;-52
2023/06/30 03:13:02;;;;;;;8.73;3.92;;;15.40;99.90;;;;;;4995960;28;20030;-53
2023/06/30 03:15:28;;;;;;;7.47;3.88;;;15.40;99.90;;;;;;4996894;28;20022;-54
2023/06/30 03:17:55;;;;;;;8.90;4.07;;;15.40;99.90;;;;;;4996458;28;20556;-53
2023/06/30 03:20:23;;;;;;;6.90;3.15;;;15.30;99.90;;;;;;5013962;28;20030;-54
2023/06/30 03:22:48;;;;;;;10.93;3.40;;;15.30;99.90;;;;;;4995841;28;20387;-52
2023/06/30 03:25:14;;;;;;;8.23;3.00;;;15.30;99.90;;;;;;4996481;28;20040;-54
2023/06/30 03:27:41;;;;;;;8.63;3.20;;;15.30;99.90;;;;;;4980257;28;20040;-54
2023/06/30 03:30:08;;;;;;;6.45;3.25;;;15.20;99.90;;;;;;5014054;28;20026;-51
2023/06/30 03:32:37;;;;;;;6.03;2.95;;;15.20;99.90;;;;;;4995884;28;20025;-55
2023/06/30 03:35:03;;;;;;;5.85;3.05;;;15.20;99.90;;;;;;4996181;28;20049;-52
2023/06/30 03:37:31;;;;;;;6.20;2.70;;;15.20;99.90;;;;;;4995500;28;20029;-51
2023/06/30 03:39:57;;;;;;;6.32;2.95;;;15.10;99.90;;;;;;4996030;28;20034;-54
2023/06/30 03:42:23;;;;;;;4.25;2.33;;;15.10;99.90;;;;;;4995408;28;20509;-50
2023/06/30 03:44:48;;;;;;;4.70;2.40;;;15.10;99.90;;;;;;4996174;28;20044;-52
2023/06/30 03:47:14;;;;;;;7.20;2.33;;;15.10;99.90;;;;;;4996085;28;20041;-51
2023/06/30 03:49:40;;;;;;;6.68;2.38;;;15.10;99.90;;;;;;4996025;28;20037;-53
2023/06/30 03:52:06;;;;;;;8.82;2.72;;;15.10;99.90;;;;;;4995748;28;20176;-54
2023/06/30 03:54:32;;;;;;;5.57;2.40;;;15.10;99.90;;;;;;4995788;28;20083;-54
2023/06/30 03:56:58;;;;;;;5.55;2.50;;;15.10;99.90;;;;;;4995900;28;20541;-52
2023/06/30 03:59:23;;;;;;;5.60;2.75;;;15.00;99.90;;;;;;4996027;28;20030;-54
2023/06/30 04:01:49;;;;;;;8.18;3.35;;;15.00;99.90;;;;;;4996082;28;20105;-55
2023/06/30 04:04:15;;;;;;;7.25;2.40;;;15.00;99.90;;;;;;5013307;28;20117;-54
2023/06/30 04:06:42;;;;;;;6.18;2.45;;;15.00;99.90;;;;;;5013455;28;20095;-53
2023/06/30 04:09:08;;;;;;;6.70;2.67;;;15.00;99.90;;;;;;5013332;28;20460;-53
2023/06/30 04:11:33;;;;;;;5.65;2.30;;;15.00;99.90;;;;;;5013450;28;20029;-52
2023/06/30 04:13:59;;;;;;;8.07;2.80;;;15.00;99.90;;;;;;5012935;28;20038;-53
2023/06/30 04:16:25;;;;;;;7.18;2.40;;;15.00;99.90;;;;;;5013053;28;20033;-53
2023/06/30 04:18:52;;;;;;;8.77;2.72;;;15.00;99.90;;;;;;5012988;28;20461;-52
2023/06/30 04:21:18;;;;;;;6.68;3.40;;;15.00;99.90;;;;;;5012873;28;20054;-54
2023/06/30 04:23:44;;;;;;;6.65;2.42;;;15.00;99.90;;;;;;5012574;28;20030;-52
2023/06/30 04:26:10;;;;;;;6.85;2.40;;;15.00;99.90;;;;;;5012873;28;20363;-54
2023/06/30 04:28:36;;;;;;;7.50;2.15;;;14.90;99.90;;;;;;5012901;28;20486;-56
2023/06/30 04:31:04;;;;;;;8.35;2.20;;;14.90;99.90;;;;;;5012778;28;20383;-54
2023/06/30 04:33:30;;;;;;;4.70;1.70;;;14.90;99.90;;;;;;5012224;28;20044;-51
2023/06/30 04:35:55;;;;;;;7.03;1.63;;;14.90;99.90;;;;;;5012725;28;20489;-51
2023/06/30 04:38:23;;;;;;;4.43;1.45;;;14.90;99.90;;;;;;4995257;28;20041;-55
2023/06/30 04:40:49;;;;;;;6.60;1.83;;;14.90;99.90;;;;;;4994831;28;20042;-52
2023/06/30 04:43:14;;;;;;;5.00;1.73;;;14.90;99.90;;;;;;5011980;28;20118;-52
2023/06/30 04:45:40;;;;;;;7.70;1.80;;;14.90;99.90;;;;;;5012627;28;20570;-53
2023/06/30 04:48:07;;;;;;;9.35;1.77;;;14.90;99.90;;;;;;5012414;28;20042;-52
2023/06/30 04:50:33;;;;;;;5.32;1.85;;;14.90;99.90;;;;;;5012305;28;20040;-55
2023/06/30 04:52:59;;;;;;;7.03;2.22;;;14.90;99.90;;;;;;5012421;28;20034;-51
2023/06/30 04:55:25;;;;;;;7.88;2.13;;;15.00;99.90;;;;;;5012247;28;20026;-50
2023/06/30 04:57:53;;;;;;;9.80;2.38;;;15.00;99.90;;;;;;5012261;28;20593;-52
2023/06/30 05:00:18;;;;;;;4.97;2.75;;;15.10;99.90;;;;;;4994618;28;20044;-54
2023/06/30 05:02:44;;;;;;;4.90;2.03;;;15.10;99.90;;;;;;5011684;28;20025;-56
2023/06/30 05:05:10;;;;;;;4.35;1.63;;;15.20;99.90;;;;;;5012180;28;20470;-53
2023/06/30 05:07:35;;;;;;;4.68;2.10;;;15.20;99.90;;;;;;4994345;28;20048;-54
2023/06/30 05:10:01;;;;;;;4.63;2.00;;;15.20;99.90;;;;;;5011793;28;20065;-55
2023/06/30 05:12:26;;;;;;;4.53;1.70;;;15.20;99.90;;;;;;5011964;28;20097;-54
2023/06/30 05:14:52;;;;;;;5.68;1.80;;;15.20;99.90;;;;;;5012008;28;20084;-54
2023/06/30 05:17:17;;;;;;;4.95;1.90;;;15.20;99.90;;;;;;5025857;22;20084;-51
2023/06/30 05:19:43;;;;;;;2.90;1.60;;;15.20;99.90;;;;;;5011183;28;20044;-50
2023/06/30 05:22:09;;;;;;;7.03;2.17;;;15.10;99.90;;;;;;5011449;28;20080;-53
2023/06/30 05:24:34;;;;;;;5.28;1.80;;;15.20;99.90;;;;;;5011553;28;20112;-54
2023/06/30 05:27:01;;;;;;;4.38;1.88;;;15.20;99.90;;;;;;5011778;28;20033;-53
2023/06/30 05:29:30;;;;;;;4.68;1.90;;;15.20;99.90;;;;;;5011612;28;20025;-54
2023/06/30 05:31:56;;;;;;;6.60;2.20;;;15.20;99.90;;;;;;5011344;28;20032;-52
2023/06/30 05:34:22;;;;;;;4.72;1.50;;;15.30;99.90;;;;;;5011502;28;20029;-53
2023/06/30 05:36:47;;;;;;;6.55;1.60;;;15.30;99.90;;;;;;5011700;28;20394;-53
2023/06/30 05:39:14;;;;;;;6.75;2.00;;;15.40;99.90;;;;;;5011414;28;20025;-54
2023/06/30 05:41:40;;;;;;;3.92;1.63;;;15.40;99.90;;;;;;5011445;28;20047;-53
2023/06/30 05:44:09;;;;;;;3.67;1.60;;;15.50;99.90;;;;;;5011255;28;20022;-49
2023/06/30 05:46:35;;;;;;;5.45;2.22;;;15.50;99.90;;;;;;5011482;28;20022;-53
2023/06/30 05:49:05;;;;;;;4.88;1.50;;;15.60;99.90;;;;;;5011321;28;20441;-51
2023/06/30 05:51:35;;;;;;;4.97;1.98;;;15.60;99.90;;;;;;5011006;28;20037;-50
2023/06/30 05:54:02;;;;;;;3.92;1.70;;;15.80;99.90;;;;;;5010828;28;20037;-54
2023/06/30 05:56:28;;;;;;;5.07;1.98;;;15.90;99.90;;;;;;5011173;28;20030;-53
2023/06/30 05:58:54;;;;;;;6.53;2.10;;;15.90;99.90;;;;;;5010865;28;20433;-53
2023/06/30 06:01:20;;;;;;;6.13;1.77;;;16.00;99.90;;;;;;4993248;28;20033;-54
2023/06/30 06:03:46;;;;;;;5.72;1.60;;;16.00;99.90;;;;;;5010834;28;20033;-54
2023/06/30 06:06:12;;;;;;;3.80;1.58;;;16.00;99.90;;;;;;5011255;28;20040;-53
2023/06/30 06:08:46;;;;;;;3.80;1.40;;;16.00;99.90;;;;;;5011082;28;20469;-54
2023/06/30 06:11:13;;;;;;;5.72;1.73;;;16.00;99.90;;;;;;5010993;28;20033;-53
2023/06/30 06:13:39;;;;;;;6.07;1.67;;;16.00;99.90;;;;;;5010644;28;20069;-50
2023/06/30 06:16:06;;;;;;;7.22;2.10;;;16.00;99.90;;;;;;5011005;28;20065;-51
2023/06/30 06:18:32;;;;;;;6.40;2.20;;;16.00;99.90;;;;;;5010976;28;20101;-53
2023/06/30 06:20:58;;;;;;;5.32;2.00;;;16.00;99.90;;;;;;5011042;28;20489;-50
2023/06/30 06:23:24;;;;;;;6.03;1.77;;;16.10;99.90;;;;;;5010490;28;20049;-53
2023/06/30 06:25:50;;;;;;;5.93;1.65;;;16.20;99.90;;;;;;5011010;28;20537;-54
2023/06/30 06:28:17;;;;;;;4.60;1.60;;;16.30;99.90;;;;;;5010780;28;20036;-54
2023/06/30 06:30:43;;;;;;;6.50;1.92;;;16.40;99.90;;;;;;5010734;28;20034;-53
2023/06/30 06:33:09;;;;;;;3.40;1.60;;;16.50;99.90;;;;;;5010543;28;20597;-54
2023/06/30 06:35:34;;;;;;;7.03;2.40;;;16.60;99.90;;;;;;5010910;28;20104;-54
2023/06/30 06:38:00;;;;;;;3.55;1.75;;;16.70;99.90;;;;;;5010769;28;20393;-54
2023/06/30 06:40:28;;;;;;;4.63;1.38;;;16.70;99.90;;;;;;5011165;28;20467;-53
2023/06/30 06:42:54;;;;;;;2.95;1.10;;;16.90;99.90;;;;;;5010110;28;20045;-54
2023/06/30 06:45:26;;;;;;;4.55;1.10;;;16.90;99.90;;;;;;4993196;28;20030;-53
2023/06/30 06:48:21;;;;;;;4.88;0.93;;;17.00;99.90;;;;;;5010874;28;20260;-54
2023/06/30 06:50:57;;;;;;;3.42;1.00;;;17.10;99.90;;;;;;5010582;28;20034;-54
2023/06/30 06:53:28;;;;;;;3.83;1.40;;;17.20;99.90;;;;;;5010119;28;20037;-54
2023/06/30 06:55:55;;;;;;;4.95;1.30;;;17.10;99.90;;;;;;5010895;28;20490;-54
2023/06/30 06:58:22;;;;;;;3.67;1.23;;;17.10;99.90;;;;;;4993118;28;20102;-54
2023/06/30 07:00:49;;;;;;;1.75;1.17;;;17.20;99.90;;;;;;5010803;28;20125;-54
2023/06/30 07:03:16;;;;;;;2.33;1.00;;;17.20;99.90;;;;;;5010324;28;20092;-54
2023/06/30 07:05:44;;;;;;;3.40;1.30;;;17.20;99.90;;;;;;4992745;28;20482;-54
2023/06/30 07:08:11;;;;;;;3.23;1.00;;;17.30;99.90;;;;;;5010600;28;20047;-54
2023/06/30 07:10:37;;;;;;;2.88;1.10;;;17.30;99.90;;;;;;5010403;28;20125;-54
2023/06/30 07:13:03;;;;;;;1.27;0.73;;;17.30;99.90;;;;;;5014106;28;20109;-54
2023/06/30 07:15:29;;;;;;;1.83;0.70;;;17.40;99.90;;;;;;5014232;28;20502;-54
2023/06/30 07:17:56;;;;;;;1.85;0.60;;;17.50;99.90;;;;;;5014168;28;20057;-54
2023/06/30 07:20:23;;;;;;;1.67;0.88;;;17.60;99.90;;;;;;5014131;28;20034;-51
2023/06/30 07:22:49;;;;;;;1.63;0.80;;;17.70;99.90;;;;;;5013701;28;20124;-52
2023/06/30 07:25:14;;;;;;;4.28;1.08;;;17.60;99.90;;;;;;5014593;28;20126;-54
2023/06/30 07:27:46;;;;;;;4.20;1.20;;;17.70;99.90;;;;;;5014206;28;20033;-52
2023/06/30 07:30:12;;;;;;;2.72;0.88;;;17.80;99.90;;;;;;5014172;28;20029;-54
2023/06/30 07:32:37;;;;;;;3.03;1.13;;;17.90;99.90;;;;;;4996124;28;20487;-54
2023/06/30 07:35:03;;;;;;;3.33;1.00;;;18.10;99.90;;;;;;5014110;28;20026;-49
2023/06/30 07:37:29;;;;;;;2.97;1.00;;;18.30;99.90;;;;;;5014130;28;20504;-54
2023/06/30 07:39:54;;;;;;;3.72;0.90;;;18.30;98.40;;;;;;5013997;28;20022;-54
2023/06/30 07:42:20;;;;;;;2.45;1.35;;;18.30;99.90;;;;;;5013469;28;20030;-54
2023/06/30 07:44:46;;;;;;;3.63;1.10;;;18.40;99.30;;;;;;5014147;28;20087;-54
2023/06/30 07:47:12;;;;;;;3.75;0.98;;;18.40;99.90;;;;;;5013650;28;20042;-54
2023/06/30 07:49:39;;;;;;;2.88;0.90;;;18.50;99.90;;;;;;5013369;28;20040;-54
2023/06/30 07:52:05;;;;;;;3.30;0.90;;;18.50;99.60;;;;;;5013279;28;20038;-52
2023/06/30 07:54:31;;;;;;;1.50;0.80;;;18.60;99.90;;;;;;5013460;28;20060;-54
2023/06/30 07:56:56;;;;;;;2.47;0.90;;;18.60;99.90;;;;;;5013686;28;20091;-54
2023/06/30 07:59:22;;;;;;;2.10;0.77;;;18.60;97.20;;;;;;5013488;28;20117;-54
2023/06/30 08:01:48;;;;;;;3.88;0.95;;;18.50;99.10;;;;;;5013305;28;20037;-53
2023/06/30 08:04:13;;;;;;;6.18;1.10;;;18.60;99.90;;;;;;5013202;28;20387;-53
2023/06/30 08:06:39;;;;;;;2.58;0.93;;;18.50;98.30;;;;;;5013476;28;20449;-54
2023/06/30 08:09:04;;;;;;;3.78;0.80;;;18.40;98.00;;;;;;5013405;28;20068;-53
2023/06/30 08:11:30;;;;;;;3.50;1.13;;;18.50;99.90;;;;;;5013022;28;20042;-53
2023/06/30 08:13:56;;;;;;;1.92;1.30;;;18.40;97.70;;;;;;5013087;28;20105;-50
2023/06/30 08:16:22;;;;;;;2.53;1.08;;;18.30;97.10;;;;;;5013332;28;20030;-53
2023/06/30 08:18:48;;;;;;;3.03;1.20;;;18.30;98.10;;;;;;5013096;28;20037;-49
2023/06/30 08:21:14;;;;;;;4.00;1.38;;;18.30;97.80;;;;;;5013520;28;20494;-54
2023/06/30 08:23:39;;;;;;;3.60;1.08;;;18.40;97.80;;;;;;5012044;28;20107;-50
2023/06/30 08:26:05;;;;;;;4.03;1.33;;;18.50;97.80;;;;;;5012892;28;20030;-50
2023/06/30 08:28:30;;;;;;;2.35;1.00;;;18.50;99.20;;;;;;5012825;28;20686;-52
2023/06/30 08:30:56;;;;;;;3.60;1.35;;;18.50;96.40;;;;;;5012802;28;20034;-54
2023/06/30 08:33:28;;;;;;;3.35;0.82;;;18.50;96.10;;;;;;5012170;28;20044;-51
2023/06/30 08:35:54;;;;;;;3.08;0.90;;;18.60;98.70;;;;;;5012538;28;20532;-54
2023/06/30 08:38:20;;;;;;;3.05;0.82;;;18.70;96.20;;;;;;5012715;28;20034;-53
2023/06/30 08:40:46;;;;;;;2.17;0.77;;;18.80;98.60;;;;;;5012551;28;20038;-51
2023/06/30 08:43:12;;;;;;;2.72;0.95;;;18.80;96.90;;;;;;4994640;28;20487;-51
2023/06/30 08:45:43;;;;;;;3.72;1.38;;;18.90;96.40;;;;;;5012517;28;20041;-52
2023/06/30 08:48:09;;;;;;;4.10;1.10;;;18.90;96.50;;;;;;5012381;28;20030;-54
2023/06/30 08:50:36;;;;;;;1.63;1.00;;;19.10;98.70;;;;;;5012416;28;20389;-52
2023/06/30 08:53:03;;;;;;;3.83;0.80;;;19.00;95.20;;;;;;4994447;28;20403;-54
2023/06/30 08:55:29;;;;;;;4.30;0.60;;;19.10;96.40;;;;;;5012384;28;20475;-52
2023/06/30 08:57:57;;;;;;;4.13;1.25;;;19.20;97.60;;;;;;4994569;28;20037;-52
2023/06/30 09:00:23;;;;;;;2.38;1.40;;;19.30;95.70;;;;;;5012110;28;20033;-52
2023/06/30 09:02:50;;;;;;;1.77;0.88;;;19.40;95.10;;;;;;4994025;28;20450;-53
2023/06/30 09:05:15;;;;;;;1.67;0.70;;;19.40;95.50;;;;;;5012143;28;20069;-52
2023/06/30 09:07:56;;;;;;;2.90;1.05;;;19.40;94.40;;;;;;5012253;28;20108;-51
2023/06/30 09:10:26;;;;;;;2.22;0.77;;;19.40;94.10;;;;;;5012011;28;20034;-54
2023/06/30 09:12:57;;;;;;;3.22;1.40;;;19.50;94.20;;;;;;5011404;28;20501;-53
2023/06/30 09:15:24;;;;;;;4.10;1.25;;;19.70;95.30;;;;;;5012198;28;20041;-50
2023/06/30 09:17:51;;;;;;;4.25;1.00;;;19.70;95.90;;;;;;5011702;28;20060;-54
2023/06/30 09:20:19;;;;;;;3.03;1.10;;;19.70;98.20;;;;;;5011903;28;20038;-54
2023/06/30 09:22:45;;;;;;;5.72;1.00;;;19.60;96.60;;;;;;5011293;28;20034;-51
2023/06/30 09:25:37;;;;;;;5.13;1.20;;;19.50;97.30;;;;;;5011739;28;20549;-52
2023/06/30 09:28:10;;;;;;;2.47;0.95;;;19.50;94.20;;;;;;5008106;28;20046;-54
2023/06/30 09:30:38;;;;;;;2.45;1.08;;;19.60;97.00;;;;;;5011650;28;20034;-53
2023/06/30 09:33:05;;;;;;;4.10;0.90;;;19.60;94.50;;;;;;5010968;28;20104;-51
2023/06/30 09:35:41;;;;;;;5.50;1.15;;;19.60;94.70;;;;;;5011005;28;20437;-53
2023/06/30 09:38:17;;;;;;;2.70;0.90;;;19.70;95.10;;;;;;5011497;28;20033;-54
2023/06/30 09:40:48;;;;;;;3.70;1.20;;;19.70;94.20;;;;;;4994078;28;20261;-54
2023/06/30 09:43:21;;;;;;;4.35;1.05;;;19.70;94.00;;;;;;5010946;28;20112;-53
2023/06/30 09:46:00;;;;;;;3.92;1.10;;;19.80;93.60;;;;;;5011486;28;20119;-53
2023/06/30 09:48:34;;;;;;;3.92;0.80;;;19.80;93.20;;;;;;5011309;28;20468;-54
2023/06/30 09:51:00;;;;;;;2.60;1.17;;;19.60;94.50;;;;;;5011261;28;20545;-53
2023/06/30 09:53:28;;;;;;;3.17;1.00;;;19.60;94.20;;;;;;5011026;28;20121;-54
2023/06/30 09:55:54;;;;;;;2.67;0.90;;;19.60;95.00;;;;;;5011466;28;20026;-53
2023/06/30 09:58:20;;;;;;;2.80;1.25;;;19.80;96.20;;;;;;5011398;28;20266;-53
2023/06/30 10:00:47;;;;;;;2.17;0.93;;;19.90;93.40;;;;;;5011621;28;20041;-52
2023/06/30 10:03:19;;;;;;;3.28;1.10;;;19.90;94.40;;;;;;5010639;28;20048;-52
2023/06/30 10:05:46;;;;;;;6.55;1.60;;;20.10;93.40;;;;;;5011227;28;20037;-52
2023/06/30 10:08:13;;;;;;;3.92;1.00;;;20.20;92.80;;;;;;4993414;28;20034;-50
2023/06/30 10:10:41;;;;;;;2.60;1.00;;;20.40;91.90;;;;;;5011024;28;20409;-50
2023/06/30 10:13:08;;;;;;;6.15;1.48;;;20.50;91.60;;;;;;5010669;28;20026;-52
2023/06/30 10:15:35;;;;;;;2.55;1.05;;;20.60;94.30;;;;;;5011003;28;20045;-50
2023/06/30 10:18:03;;;;;;;3.10;1.50;;;20.60;93.60;;;;;;5010730;28;20033;-53
2023/06/30 10:20:29;;;;;;;2.87;1.00;;;20.70;91.80;;;;;;5011252;28;20080;-53
2023/06/30 10:22:56;;;;;;;3.80;1.13;;;20.80;93.80;;;;;;5010571;28;20478;-53
2023/06/30 10:25:25;;;;;;;4.75;1.42;;;20.70;94.60;;;;;;4993366;28;20486;-52
2023/06/30 10:27:51;;;;;;;3.63;1.20;;;20.70;92.10;;;;;;5010786;28;20038;-51
2023/06/30 10:30:17;;;;;;;2.72;1.20;;;20.80;92.00;;;;;;5010783;28;20088;-52
2023/06/30 10:32:43;;;;;;;3.75;1.20;;;20.70;93.10;;;;;;5010295;28;20498;-53
2023/06/30 10:35:10;;;;;;;4.88;1.38;;;20.70;90.80;;;;;;5010835;28;20501;-52
2023/06/30 10:37:36;;;;;;;1.90;1.13;;;20.70;91.50;;;;;;5010998;28;20077;-53
2023/06/30 10:40:07;;;;;;;1.83;1.00;;;20.70;92.30;;;;;;5010821;28;20045;-51
2023/06/30 10:42:41;;;;;;;2.20;1.17;;;20.60;91.80;;;;;;5010239;28;20129;-53
2023/06/30 10:45:07;;;;;;;4.07;1.55;;;20.70;93.50;;;;;;5011607;28;20030;-53
2023/06/30 10:47:38;;;;;;;3.83;1.40;;;20.80;92.00;;;;;;5014589;28;20057;-52
2023/06/30 10:50:12;;;;;;;6.53;3.55;;;20.90;91.80;;;;;;4997007;28;20033;-52
2023/06/30 10:52:38;;;;;;;1.90;1.10;;;21.10;92.00;;;;;;5014138;28;20049;-49
2023/06/30 10:55:06;;;;;;;2.22;1.10;;;21.00;92.10;;;;;;5014462;28;20107;-51
2023/06/30 10:57:36;;;;;;;4.85;2.20;;;21.10;92.00;;;;;;5014610;28;20136;-53
2023/06/30 11:00:15;;;;;;;3.15;1.15;;;21.40;92.00;;;;;;5014514;28;20045;-53
2023/06/30 11:02:58;;;;;;;3.25;1.10;;;21.30;92.00;;;;;;5013983;28;20065;-53
2023/06/30 11:05:31;;;;;;;4.05;2.08;;;21.40;90.50;;;;;;5014334;28;20029;-52
2023/06/30 11:08:06;;;;;;;3.17;1.35;;;21.40;89.70;;;;;;5014325;28;20052;-53
2023/06/30 11:10:32;;;;;;;1.50;0.80;;;21.50;88.00;;;;;;4996869;28;20034;-51
2023/06/30 11:12:59;;;;;;;3.50;1.25;;;21.30;90.50;;;;;;5013983;28;20025;-53
2023/06/30 11:15:35;;;;;;;4.40;1.17;;;21.30;90.10;;;;;;5014374;28;20025;-51
2023/06/30 11:18:10;;;;;;;1.42;1.08;;;21.20;91.60;;;;;;5010062;23;20092;-59
2023/06/30 11:20:36;;;;;;;3.35;1.00;;;21.10;90.20;;;;;;5014417;28;20041;-58
2023/06/30 11:23:15;;;;;;;3.15;1.20;;;21.10;93.30;;;;;;5014036;28;20049;-59
2023/06/30 11:25:40;;;;;;;4.05;1.17;;;21.10;91.30;;;;;;4996609;28;20077;-55
2023/06/30 11:28:08;;;;;;;3.60;1.00;;;21.00;90.70;;;;;;5014276;28;20038;-59
2023/06/30 11:30:37;;;;;;;5.40;1.52;;;21.00;92.00;;;;;;5013898;28;20052;-59
2023/06/30 11:33:05;;;;;;;1.92;1.00;;;21.00;91.10;;;;;;5013679;28;20109;-57
2023/06/30 11:35:33;;;;;;;2.45;1.25;;;21.00;90.90;;;;;;5014588;28;20072;-57
2023/06/30 11:37:58;;;;;;;2.53;0.97;;;21.20;91.30;;;;;;5013933;28;20637;-55
2023/06/30 11:40:24;;;;;;;3.58;1.20;;;21.20;90.50;;;;;;5013873;28;20042;-57
2023/06/30 11:42:52;;;;;;;2.17;0.90;;;21.30;90.10;;;;;;5013278;28;20037;-58
2023/06/30 11:45:20;;;;;;;1.85;0.82;;;21.50;91.10;;;;;;5013774;28;20030;-58
2023/06/30 11:47:51;;;;;;;2.33;1.00;;;21.60;89.00;;;;;;5013845;28;20038;-58
2023/06/30 11:50:18;;;;;;;3.03;1.10;;;21.70;86.70;;;;;;5013502;28;20101;-59
2023/06/30 11:52:45;;;;;;;2.63;1.40;;;21.70;87.80;;;;;;5013184;28;20038;-58
2023/06/30 11:55:12;;;;;;;3.83;1.10;;;21.70;89.10;;;;;;5013577;28;20026;-59
2023/06/30 11:57:40;;;;;;;2.60;1.20;;;21.60;90.30;;;;;;5012915;28;20029;-59
2023/06/30 12:00:11;;;;;;;4.90;1.48;;;21.60;91.20;;;;;;5013525;28;20034;-59
2023/06/30 12:02:57;;;;;;;1.92;1.17;;;21.60;90.30;;;;;;5013427;28;20505;-59
2023/06/30 12:05:25;;;;;;;2.72;1.10;;;21.60;89.20;;;;;;5013751;28;20038;-57
2023/06/30 12:07:52;;;;;;;4.00;1.37;;;21.50;89.00;;;;;;5013179;28;20033;-57
2023/06/30 12:10:18;;;;;;;3.53;1.25;;;21.50;87.30;;;;;;5013191;28;20460;-59
2023/06/30 12:12:52;;;;;;;3.35;1.55;;;21.60;90.10;;;;;;5012641;28;20105;-56
2023/06/30 12:15:17;;;;;;;3.33;1.30;;;21.80;88.30;;;;;;5013086;28;20030;-57
2023/06/30 12:17:43;;;;;;;2.40;1.05;;;22.00;87.30;;;;;;5012840;28;20030;-58
2023/06/30 12:20:10;;;;;;;5.78;1.70;;;22.10;86.00;;;;;;5012964;28;20068;-59
2023/06/30 12:22:44;;;;;;;2.67;1.23;;;22.30;86.40;;;;;;5012505;28;20044;-57
2023/06/30 12:25:11;;;;;;;1.98;1.05;;;22.40;85.90;;;;;;5012874;28;20042;-57
2023/06/30 12:27:43;;;;;;;6.25;2.90;;;22.20;84.20;;;;;;5012850;28;20490;-58
2023/06/30 12:30:16;;;;;;;3.83;1.20;;;22.20;86.10;;;;;;5012543;28;20037;-59
2023/06/30 12:32:43;;;;;;;3.15;1.60;;;22.20;89.90;;;;;;5012207;28;20475;-59
2023/06/30 12:35:10;;;;;;;3.83;1.10;;;22.30;86.00;;;;;;5012596;28;20038;-58
2023/06/30 12:37:36;;;;;;;2.28;1.10;;;22.20;88.70;;;;;;5012637;28;20061;-57
2023/06/30 12:40:03;;;;;;;6.88;3.28;;;22.20;84.80;;;;;;5012520;28;20041;-59
2023/06/30 12:42:32;;;;;;;5.72;3.00;;;22.40;85.50;;;;;;5012087;28;20034;-57
2023/06/30 12:44:58;;;;;;;1.80;1.10;;;22.40;85.30;;;;;;5012774;28;20048;-55
2023/06/30 12:47:23;;;;;;;2.53;1.10;;;22.30;83.90;;;;;;5012389;28;20029;-59